createdAt,value
2018-05-04T09:26:57.798Z,16.03
2018-05-04T09:29:24.167Z,15.90
2018-05-04T09:31:51.272Z,16.53
2018-05-04T09:34:17.679Z,18.00
2018-05-04T09:36:44.060Z,15.73
2018-05-04T09:39:10.459Z,17.07
2018-05-04T09:41:36.844Z,17.27
2018-05-04T09:44:03.239Z,17.87
2018-05-04T09:46:29.632Z,18.30
2018-05-04T09:48:56.743Z,20.77
2018-05-04T09:51:23.271Z,18.47
2018-05-04T09:53:49.643Z,18.70
2018-05-04T09:56:16.031Z,17.07
2018-05-04T09:58:42.419Z,19.30
2018-05-04T10:01:09.536Z,20.10
2018-05-04T10:03:35.993Z,20.70
2018-05-04T10:06:03.188Z,19.70
2018-05-04T10:08:29.653Z,20.00
2018-05-04T10:10:56.095Z,19.97
2018-05-04T10:13:22.471Z,18.40
2018-05-04T10:15:49.602Z,21.17
2018-05-04T10:18:15.988Z,21.17
2018-05-04T10:20:42.383Z,21.13
2018-05-04T10:23:09.519Z,20.20
2018-05-04T10:25:35.889Z,20.57
2018-05-04T10:28:02.276Z,19.97
2018-05-04T10:30:28.646Z,18.60
2018-05-04T10:32:55.781Z,19.70
2018-05-04T10:35:22.216Z,19.97
2018-05-04T10:37:49.363Z,18.47
2018-05-04T10:40:16.504Z,18.63
2018-05-04T10:42:42.891Z,18.10
2018-05-04T10:45:09.270Z,17.67
2018-05-04T10:47:35.959Z,16.53
2018-05-04T10:50:02.360Z,17.83
2018-05-04T10:52:28.752Z,15.90
2018-05-04T10:54:55.144Z,15.30
2018-05-04T10:57:22.291Z,18.83
2018-05-04T10:59:49.435Z,18.83
2018-05-04T11:02:16.560Z,19.17
2018-05-04T11:04:42.927Z,19.10
2018-05-04T11:07:10.062Z,18.70
2018-05-04T11:09:36.483Z,19.90
2018-05-04T11:12:03.714Z,18.57
2018-05-04T11:14:30.784Z,17.80
2018-05-04T11:16:57.927Z,18.63
2018-05-04T11:19:24.399Z,18.57
2018-05-04T11:21:50.720Z,17.87
2018-05-04T11:24:17.111Z,18.33
2018-05-04T11:26:43.507Z,19.27
2018-05-04T11:29:10.627Z,19.17
2018-05-04T11:31:37.764Z,19.00
2018-05-04T11:34:04.201Z,18.37
2018-05-04T11:36:30.586Z,19.37
2018-05-04T11:38:56.994Z,19.50
2018-05-04T11:41:24.159Z,19.93
2018-05-04T11:43:51.299Z,19.37
2018-05-04T11:46:17.677Z,18.43
2018-05-04T11:48:44.074Z,18.47
2018-05-04T11:51:11.221Z,18.93
2018-05-04T11:53:38.362Z,20.77
2018-05-04T11:56:04.784Z,18.83
2018-05-04T11:58:31.155Z,18.50
2018-05-04T12:00:58.294Z,21.17
2018-05-04T12:03:25.422Z,21.10
2018-05-04T12:05:52.580Z,20.60
2018-05-04T12:08:18.983Z,19.47
2018-05-04T12:10:45.433Z,22.40
2018-05-04T12:13:11.865Z,20.30
2018-05-04T12:15:38.281Z,19.87
2018-05-04T12:18:04.676Z,21.50
2018-05-04T12:20:31.800Z,20.13
2018-05-04T12:22:58.220Z,20.70
2018-05-04T12:25:24.589Z,21.87
2018-05-04T12:27:51.720Z,19.00
2018-05-04T12:30:18.107Z,22.10
2018-05-04T12:32:44.496Z,20.17
2018-05-04T12:35:10.887Z,20.20
2018-05-04T12:37:37.292Z,19.60
2018-05-04T12:40:03.655Z,22.47
2018-05-04T12:42:30.052Z,21.57
2018-05-04T12:44:57.168Z,21.80
2018-05-04T12:47:23.563Z,22.43
2018-05-04T12:49:49.961Z,21.50
2018-05-04T12:52:17.072Z,22.70
2018-05-04T12:54:43.466Z,24.70
2018-05-04T12:57:09.847Z,21.83
2018-05-04T12:59:36.280Z,25.70
2018-05-04T13:02:02.723Z,22.03
2018-05-04T13:04:29.113Z,21.50
2018-05-04T13:06:55.559Z,22.10
2018-05-04T13:09:21.972Z,20.60
2018-05-04T13:11:48.396Z,17.07
2018-05-04T13:14:15.603Z,16.30
2018-05-04T13:16:42.103Z,15.50
2018-05-04T13:19:08.498Z,15.63
2018-05-04T13:21:35.760Z,15.17
2018-05-04T13:24:02.199Z,14.20
2018-05-04T13:26:30.807Z,12.47
2018-05-04T13:28:57.212Z,12.90
2018-05-04T13:31:24.341Z,13.60
2018-05-04T13:33:51.501Z,13.90
2018-05-04T13:36:17.910Z,14.13
2018-05-04T13:38:44.387Z,12.70
2018-05-04T13:41:10.825Z,14.63
2018-05-04T13:43:38.083Z,13.10
2018-05-04T13:46:05.237Z,13.10
2018-05-04T13:48:32.428Z,13.10
2018-05-04T13:50:58.831Z,17.07
2018-05-04T13:53:26.010Z,14.80
2018-05-04T13:55:52.428Z,14.57
2018-05-04T13:58:18.844Z,13.80
2018-05-04T14:00:46.010Z,17.30
2018-05-04T14:03:12.483Z,18.73
2018-05-04T14:05:38.972Z,15.00
2018-05-04T14:08:06.162Z,12.30
2018-05-04T14:10:32.565Z,13.00
2018-05-04T14:12:58.947Z,12.63
2018-05-04T14:15:25.389Z,13.47
2018-05-04T14:17:51.821Z,12.50
2018-05-04T14:20:18.273Z,13.20
2018-05-04T14:22:44.740Z,13.30
2018-05-04T14:25:11.117Z,14.10
2018-05-04T14:27:37.543Z,13.80
2018-05-04T14:30:03.939Z,12.80
2018-05-04T14:32:31.155Z,13.10
2018-05-04T14:34:57.597Z,13.73
2018-05-04T14:37:23.977Z,13.00
2018-05-04T14:39:50.407Z,14.57
2018-05-04T14:42:16.835Z,14.33
2018-05-04T14:44:43.240Z,14.00
2018-05-04T14:47:09.659Z,12.33
2018-05-04T14:49:36.808Z,13.30
2018-05-04T14:52:03.228Z,13.60
2018-05-04T14:54:29.617Z,12.97
2018-05-04T14:56:56.039Z,13.10
2018-05-04T14:59:23.150Z,14.17
2018-05-04T15:01:49.544Z,14.00
2018-05-04T15:04:15.987Z,14.37
2018-05-04T15:06:42.371Z,14.30
2018-05-04T15:09:08.773Z,13.90
2018-05-04T15:11:35.164Z,14.23
2018-05-04T15:14:02.344Z,13.50
2018-05-04T15:16:28.788Z,14.10
2018-05-04T15:18:55.280Z,15.10
2018-05-04T15:21:22.480Z,14.10
2018-05-04T15:23:48.901Z,15.63
2018-05-04T15:26:15.281Z,15.77
2018-05-04T15:28:41.752Z,16.77
2018-05-04T15:31:08.208Z,16.03
2018-05-04T15:33:34.605Z,15.93
2018-05-04T15:36:01.735Z,16.90
2018-05-04T15:38:28.184Z,16.80
2018-05-04T15:40:55.315Z,17.27
2018-05-04T15:43:22.465Z,16.97
2018-05-04T15:45:48.856Z,16.70
2018-05-04T15:48:21.304Z,18.20
2018-05-04T15:50:54.588Z,17.33
2018-05-04T15:53:20.991Z,18.53
2018-05-04T15:55:47.423Z,17.50
2018-05-04T15:58:13.803Z,17.80
2018-05-04T16:00:40.961Z,17.40
2018-05-04T16:03:08.187Z,17.73
2018-05-04T16:05:34.593Z,18.57
2018-05-04T16:08:00.968Z,17.80
2018-05-04T16:10:28.107Z,16.80
2018-05-04T16:12:54.607Z,17.33
2018-05-04T16:15:20.997Z,18.03
2018-05-04T16:17:48.169Z,16.30
2018-05-04T16:20:14.678Z,17.87
2018-05-04T16:22:41.287Z,17.07
2018-05-04T16:25:07.825Z,17.17
2018-05-04T16:27:34.252Z,14.97
2018-05-04T16:30:00.633Z,15.20
2018-05-04T16:32:27.819Z,15.90
2018-05-04T16:34:54.204Z,16.03
2018-05-04T16:37:21.343Z,18.37
2018-05-04T16:39:47.749Z,17.00
2018-05-04T16:42:14.168Z,17.33
2018-05-04T16:44:40.539Z,16.40
2018-05-04T16:47:13.091Z,15.90
2018-05-04T16:49:39.465Z,17.43
2018-05-04T16:52:05.858Z,16.90
2018-05-04T16:54:32.240Z,16.73
2018-05-04T16:56:59.413Z,17.47
2018-05-04T16:59:25.845Z,17.73
2018-05-04T17:01:53.032Z,18.07
2018-05-04T17:04:19.435Z,17.27
2018-05-04T17:06:45.842Z,17.43
2018-05-04T17:09:12.323Z,17.73
2018-05-04T17:11:39.460Z,17.10
2018-05-04T17:14:06.333Z,16.13
2018-05-04T17:16:33.799Z,18.10
2018-05-04T17:19:01.254Z,17.00
2018-05-04T17:21:29.308Z,17.90
2018-05-04T17:23:55.819Z,19.37
2018-05-04T17:26:23.219Z,17.60
2018-05-04T17:28:50.720Z,17.67
2018-05-04T17:31:19.074Z,18.87
2018-05-04T17:33:45.525Z,17.67
2018-05-04T17:36:12.846Z,20.50
2018-05-04T17:38:40.004Z,18.07
2018-05-04T17:41:06.941Z,18.40
2018-05-04T17:43:33.586Z,17.37
2018-05-04T17:46:00.788Z,17.70
2018-05-04T17:48:28.010Z,18.20
2018-05-04T17:50:54.400Z,17.30
2018-05-04T17:53:20.829Z,18.47
2018-05-04T17:55:47.250Z,17.37
2018-05-04T17:58:14.412Z,17.97
2018-05-04T18:00:41.565Z,17.97
2018-05-04T18:03:08.034Z,17.70
2018-05-04T18:05:35.138Z,17.50
2018-05-04T18:08:02.259Z,18.17
2018-05-04T18:10:28.665Z,18.40
2018-05-04T18:12:55.070Z,18.30
